createdAt,value
2023-01-08T00:00:13.211Z,100683.69
2023-01-08T00:01:16.058Z,100683.44
2023-01-08T00:02:18.805Z,100689.66
2023-01-08T00:03:21.436Z,100676.38
2023-01-08T00:04:24.042Z,100674.03
2023-01-08T00:05:26.681Z,100680.88
2023-01-08T00:06:29.450Z,100668.53
2023-01-08T00:07:32.475Z,100678.56
2023-01-08T00:08:35.245Z,100675.09
2023-01-08T00:09:37.788Z,100677.94
2023-01-08T00:10:40.314Z,100668.47
2023-01-08T00:11:44.591Z,100680.19
2023-01-08T00:12:47.136Z,100685.66
2023-01-08T00:13:49.764Z,100679.38
2023-01-08T00:14:52.331Z,100682.72
2023-01-08T00:15:54.964Z,100682.06
2023-01-08T00:16:57.935Z,100685.22
2023-01-08T00:18:00.991Z,100678.19
2023-01-08T00:19:03.699Z,100685.00
2023-01-08T00:20:06.935Z,100682.44
2023-01-08T00:21:09.679Z,100675.59
2023-01-08T00:22:12.420Z,100681.41
2023-01-08T00:23:20.381Z,100679.78
2023-01-08T00:24:23.073Z,100685.50
2023-01-08T00:25:25.503Z,100673.97
2023-01-08T00:26:27.988Z,100682.41
2023-01-08T00:27:31.036Z,100680.28
2023-01-08T00:28:34.499Z,100675.09
2023-01-08T00:29:37.714Z,100673.75
2023-01-08T00:30:40.295Z,100677.00
2023-01-08T00:31:45.612Z,100679.34
2023-01-08T00:32:48.107Z,100668.88
2023-01-08T00:33:50.651Z,100676.75
2023-01-08T00:34:54.899Z,100673.97
2023-01-08T00:35:57.613Z,100675.59
2023-01-08T00:37:00.331Z,100673.25
2023-01-08T00:38:02.901Z,100677.41
2023-01-08T00:39:05.487Z,100671.50
2023-01-08T00:40:09.965Z,100669.00
2023-01-08T00:41:13.919Z,100676.59
2023-01-08T00:42:18.263Z,100675.06
2023-01-08T00:43:20.692Z,100682.41
2023-01-08T00:44:23.340Z,100678.28
2023-01-08T00:45:25.938Z,100675.06
2023-01-08T00:46:28.918Z,100678.94
2023-01-08T00:47:31.506Z,100677.13
2023-01-08T00:48:37.516Z,100675.72
2023-01-08T00:49:40.521Z,100673.44
2023-01-08T00:50:45.018Z,100672.38
2023-01-08T00:51:47.546Z,100668.22
2023-01-08T00:52:50.229Z,100667.53
2023-01-08T00:53:52.728Z,100672.25
2023-01-08T00:54:55.308Z,100666.13
2023-01-08T00:56:02.213Z,100662.59
2023-01-08T00:57:04.856Z,100659.56
2023-01-08T00:58:07.670Z,100663.94
2023-01-08T00:59:12.591Z,100671.97
2023-01-08T01:00:16.273Z,100675.38
2023-01-08T01:01:19.085Z,100670.56
2023-01-08T01:02:21.738Z,100681.81
2023-01-08T01:03:24.625Z,100671.09
2023-01-08T01:04:27.465Z,100669.28
2023-01-08T01:05:30.324Z,100670.34
2023-01-08T01:06:33.028Z,100670.28
2023-01-08T01:07:35.859Z,100675.00
2023-01-08T01:08:38.448Z,100675.78
2023-01-08T01:09:41.174Z,100681.56
2023-01-08T01:10:43.800Z,100673.13
2023-01-08T01:11:46.330Z,100675.78
2023-01-08T01:12:49.108Z,100671.41
2023-01-08T01:13:52.600Z,100675.00
2023-01-08T01:14:55.336Z,100670.28
2023-01-08T01:16:00.281Z,100667.41
2023-01-08T01:17:05.174Z,100671.78
2023-01-08T01:18:08.722Z,100666.34
2023-01-08T01:19:11.323Z,100672.13
2023-01-08T01:20:16.460Z,100671.84
2023-01-08T01:21:26.329Z,100666.13
2023-01-08T01:22:28.967Z,100671.56
2023-01-08T01:23:31.510Z,100673.25
2023-01-08T01:24:34.161Z,100662.00
2023-01-08T01:25:38.401Z,100668.81
2023-01-08T01:26:41.312Z,100671.16
2023-01-08T01:27:44.000Z,100667.03
2023-01-08T01:28:52.429Z,100661.03
2023-01-08T01:29:54.922Z,100656.56
2023-01-08T01:30:57.867Z,100652.13
2023-01-08T01:32:05.630Z,100663.94
2023-01-08T01:33:08.221Z,100656.34
2023-01-08T01:34:11.094Z,100658.47
2023-01-08T01:35:16.138Z,100653.47
2023-01-08T01:36:21.009Z,100656.34
2023-01-08T01:37:23.665Z,100657.63
2023-01-08T01:38:26.252Z,100653.97
2023-01-08T01:39:28.974Z,100654.94
2023-01-08T01:40:32.707Z,100656.22
2023-01-08T01:41:44.169Z,100659.38
2023-01-08T01:42:46.913Z,100654.22
2023-01-08T01:43:49.558Z,100656.47
2023-01-08T01:44:52.493Z,100655.03
2023-01-08T01:45:55.078Z,100655.84
2023-01-08T01:46:57.914Z,100660.03
2023-01-08T01:48:00.430Z,100663.25
2023-01-08T01:49:11.608Z,100662.94
2023-01-08T01:50:26.882Z,100657.50
2023-01-08T01:51:33.895Z,100649.97
2023-01-08T01:52:46.400Z,100664.13
2023-01-08T01:53:50.025Z,100659.19
2023-01-08T01:54:53.349Z,100648.44
2023-01-08T01:55:57.056Z,100647.31
2023-01-08T01:57:01.268Z,100648.03
2023-01-08T01:58:13.755Z,100640.13
2023-01-08T01:59:16.877Z,100648.03
2023-01-08T02:00:19.826Z,100653.81
2023-01-08T02:01:23.374Z,100660.66
2023-01-08T02:02:26.363Z,100653.97
2023-01-08T02:03:35.625Z,100659.19
2023-01-08T02:04:38.469Z,100653.97
2023-01-08T02:05:54.808Z,100642.22
2023-01-08T02:07:06.323Z,100649.00
2023-01-08T02:08:17.129Z,100650.59
2023-01-08T02:09:45.177Z,100646.72
2023-01-08T02:11:10.175Z,100652.34
2023-01-08T02:12:23.751Z,100641.34
2023-01-08T02:13:36.969Z,100641.06
2023-01-08T02:15:05.466Z,100651.25
2023-01-08T02:16:14.226Z,100650.31
2023-01-08T02:17:26.956Z,100642.75
2023-01-08T02:18:42.350Z,100643.03
2023-01-08T02:20:03.002Z,100648.31
2023-01-08T02:21:10.557Z,100646.47
2023-01-08T02:22:38.251Z,100640.94
2023-01-08T02:24:03.595Z,100639.13
2023-01-08T02:25:09.005Z,100648.75
2023-01-08T02:26:30.256Z,100635.44
2023-01-08T02:27:36.024Z,100638.97
2023-01-08T02:28:54.305Z,100640.06
2023-01-08T02:29:58.490Z,100643.81
2023-01-08T02:31:01.770Z,100644.47
2023-01-08T02:32:04.962Z,100645.88
2023-01-08T02:33:08.359Z,100644.13
2023-01-08T02:34:13.020Z,100641.00
2023-01-08T02:35:15.739Z,100651.31
2023-01-08T02:36:33.705Z,100647.06
2023-01-08T02:37:37.829Z,100636.44
2023-01-08T02:38:49.983Z,100648.44
2023-01-08T02:40:04.395Z,100632.25
2023-01-08T02:41:12.221Z,100634.84
2023-01-08T02:42:27.015Z,100638.25
2023-01-08T02:43:46.111Z,100636.44
2023-01-08T02:44:57.424Z,100636.94
2023-01-08T02:46:02.220Z,100627.81
2023-01-08T02:47:11.086Z,100627.81
2023-01-08T02:48:41.373Z,100626.47
2023-01-08T02:49:46.788Z,100629.34
2023-01-08T02:51:05.271Z,100631.69
2023-01-08T02:52:13.265Z,100622.34
2023-01-08T02:53:39.056Z,100623.72
2023-01-08T02:54:43.765Z,100625.31
2023-01-08T02:55:52.425Z,100610.22
2023-01-08T02:57:01.244Z,100622.97
2023-01-08T02:58:05.405Z,100618.56
2023-01-08T02:59:11.384Z,100615.88
2023-01-08T03:00:15.341Z,100624.78
2023-01-08T03:01:19.071Z,100618.00
2023-01-08T03:02:22.697Z,100617.22
2023-01-08T03:03:27.842Z,100623.22
2023-01-08T03:04:36.963Z,100613.00
2023-01-08T03:05:42.003Z,100611.44
2023-01-08T03:06:45.186Z,100622.13
2023-01-08T03:07:48.051Z,100618.44
2023-01-08T03:08:52.889Z,100608.03
2023-01-08T03:09:55.707Z,100614.50
2023-01-08T03:11:05.247Z,100611.16
2023-01-08T03:12:16.669Z,100609.53
2023-01-08T03:13:27.433Z,100612.72
2023-01-08T03:14:50.163Z,100611.13
2023-01-08T03:15:56.813Z,100614.28
2023-01-08T03:17:08.057Z,100610.31
2023-01-08T03:18:16.159Z,100607.50
2023-01-08T03:19:41.580Z,100611.66
2023-01-08T03:20:45.575Z,100613.66
2023-01-08T03:21:50.955Z,100605.78
2023-01-08T03:22:57.366Z,100605.31
2023-01-08T03:24:00.495Z,100614.91
2023-01-08T03:25:13.067Z,100603.94
2023-01-08T03:26:20.168Z,100603.19
2023-01-08T03:27:27.256Z,100608.41
2023-01-08T03:28:35.887Z,100609.63
2023-01-08T03:29:40.808Z,100606.22
2023-01-08T03:30:44.684Z,100604.75
2023-01-08T03:31:48.784Z,100592.53
2023-01-08T03:32:52.961Z,100597.19
2023-01-08T03:33:57.479Z,100591.66
2023-01-08T03:35:03.061Z,100588.00
2023-01-08T03:36:08.503Z,100590.41
2023-01-08T03:37:13.998Z,100578.59
2023-01-08T03:38:24.787Z,100579.97
2023-01-08T03:39:37.712Z,100583.03
2023-01-08T03:40:48.175Z,100581.69
2023-01-08T03:41:56.606Z,100580.16
2023-01-08T03:42:59.224Z,100583.38
2023-01-08T03:44:01.865Z,100589.22
2023-01-08T03:45:05.031Z,100584.81
2023-01-08T03:46:12.270Z,100585.88
2023-01-08T03:47:16.122Z,100581.66
2023-01-08T03:48:21.548Z,100578.75
2023-01-08T03:49:27.451Z,100574.31
2023-01-08T03:50:32.240Z,100584.28
2023-01-08T03:51:45.558Z,100583.50
2023-01-08T03:52:48.060Z,100582.50
2023-01-08T03:53:53.810Z,100580.16
2023-01-08T03:54:56.863Z,100582.28
2023-01-08T03:55:59.357Z,100583.28
2023-01-08T03:57:02.041Z,100586.44
2023-01-08T03:58:04.867Z,100586.75
2023-01-08T03:59:07.539Z,100582.16
2023-01-08T04:00:11.080Z,100576.91
2023-01-08T04:01:13.981Z,100578.53
2023-01-08T04:02:17.248Z,100581.94
2023-01-08T04:03:19.915Z,100574.84
2023-01-08T04:04:22.778Z,100578.81
2023-01-08T04:05:25.494Z,100589.50
2023-01-08T04:06:28.326Z,100580.03
2023-01-08T04:07:31.212Z,100588.16
2023-01-08T04:08:34.099Z,100593.44
2023-01-08T04:09:36.670Z,100596.03
2023-01-08T04:10:39.361Z,100591.06
2023-01-08T04:11:42.198Z,100587.66
2023-01-08T04:12:46.751Z,100594.22
2023-01-08T04:13:49.600Z,100590.81
2023-01-08T04:14:55.264Z,100589.78
2023-01-08T04:15:58.460Z,100581.94
2023-01-08T04:17:01.553Z,100585.31
2023-01-08T04:18:04.408Z,100582.69
2023-01-08T04:19:07.159Z,100581.66
2023-01-08T04:20:10.090Z,100579.25
2023-01-08T04:21:12.606Z,100583.44
2023-01-08T04:22:15.237Z,100578.53
2023-01-08T04:23:17.903Z,100577.47
2023-01-08T04:24:23.084Z,100581.16
2023-01-08T04:25:25.720Z,100571.75
2023-01-08T04:26:32.033Z,100573.53
2023-01-08T04:27:34.612Z,100571.22
2023-01-08T04:28:38.622Z,100576.38
2023-01-08T04:29:42.077Z,100579.06
2023-01-08T04:30:45.089Z,100568.88
2023-01-08T04:31:47.650Z,100574.59
2023-01-08T04:32:50.262Z,100570.69
2023-01-08T04:33:52.846Z,100571.25
2023-01-08T04:34:55.339Z,100578.19
2023-01-08T04:35:57.829Z,100574.66
2023-01-08T04:37:00.865Z,100573.31
2023-01-08T04:38:03.985Z,100575.66
2023-01-08T04:39:08.122Z,100577.00
2023-01-08T04:40:11.320Z,100577.47
2023-01-08T04:41:13.864Z,100569.34
2023-01-08T04:42:16.375Z,100575.66
2023-01-08T04:43:18.868Z,100565.47
2023-01-08T04:44:21.416Z,100564.69
2023-01-08T04:45:24.186Z,100569.41
2023-01-08T04:46:26.742Z,100559.75
2023-01-08T04:47:29.361Z,100561.78
2023-01-08T04:48:32.186Z,100555.78
2023-01-08T04:49:36.116Z,100564.97
2023-01-08T04:50:38.574Z,100567.88
2023-01-08T04:51:41.095Z,100565.25
2023-01-08T04:52:43.744Z,100559.59
2023-01-08T04:53:47.417Z,100566.09
2023-01-08T04:54:49.956Z,100567.69
2023-01-08T04:55:52.836Z,100563.00
2023-01-08T04:56:55.647Z,100558.25
2023-01-08T04:57:58.080Z,100562.13
2023-01-08T04:59:00.581Z,100556.13
2023-01-08T05:00:05.601Z,100562.63
2023-01-08T05:01:38.984Z,100561.38
2023-01-08T05:02:41.639Z,100559.75
2023-01-08T05:03:44.359Z,100556.63
2023-01-08T05:04:48.144Z,100551.91
2023-01-08T05:05:50.788Z,100556.56
2023-01-08T05:06:55.736Z,100557.13
2023-01-08T05:07:58.334Z,100555.53
2023-01-08T05:09:00.857Z,100546.69
2023-01-08T05:10:03.939Z,100547.69
2023-01-08T05:11:06.506Z,100546.69
2023-01-08T05:12:10.684Z,100548.03
2023-01-08T05:13:13.240Z,100549.38
2023-01-08T05:14:15.748Z,100548.13
2023-01-08T05:15:18.356Z,100548.28
2023-01-08T05:16:21.566Z,100549.38
2023-01-08T05:17:24.941Z,100547.53
2023-01-08T05:18:28.955Z,100542.59
2023-01-08T05:19:31.436Z,100547.31
2023-01-08T05:20:35.355Z,100549.47
2023-01-08T05:21:37.965Z,100545.91
2023-01-08T05:22:40.310Z,100544.91
2023-01-08T05:23:47.098Z,100542.38
2023-01-08T05:24:49.674Z,100551.00
2023-01-08T05:25:52.061Z,100546.81
2023-01-08T05:26:54.778Z,100561.78
2023-01-08T05:27:57.338Z,100563.06
2023-01-08T05:29:00.045Z,100565.81
2023-01-08T05:30:05.702Z,100562.34
2023-01-08T05:31:08.348Z,100563.63
2023-01-08T05:32:20.054Z,100570.19
2023-01-08T05:33:22.989Z,100570.97
2023-01-08T05:34:25.595Z,100574.06
2023-01-08T05:35:28.113Z,100576.13
2023-01-08T05:36:31.401Z,100576.63
2023-01-08T05:37:35.724Z,100574.84
2023-01-08T05:38:39.344Z,100579.28
2023-01-08T05:39:43.297Z,100581.91
2023-01-08T05:40:45.877Z,100576.19
2023-01-08T05:41:48.447Z,100578.81
2023-01-08T05:42:51.010Z,100582.31
2023-01-08T05:43:53.496Z,100572.41
2023-01-08T05:44:57.289Z,100573.00
2023-01-08T05:46:02.773Z,100574.66
2023-01-08T05:47:06.162Z,100582.06
2023-01-08T05:48:09.114Z,100574.41
2023-01-08T05:49:11.690Z,100574.66
2023-01-08T05:50:14.175Z,100580.09
2023-01-08T05:51:16.628Z,100571.47
2023-01-08T05:52:19.100Z,100574.06
2023-01-08T05:53:22.255Z,100571.28
2023-01-08T05:54:24.831Z,100576.69
2023-01-08T05:55:27.347Z,100583.13
2023-01-08T05:56:29.980Z,100581.03
2023-01-08T05:57:32.891Z,100578.94
2023-01-08T05:58:35.687Z,100580.25
2023-01-08T05:59:38.359Z,100576.41
2023-01-08T06:00:41.014Z,100577.00
2023-01-08T06:01:43.649Z,100578.75
2023-01-08T06:02:48.090Z,100573.75
2023-01-08T06:03:53.589Z,100572.41
2023-01-08T06:04:56.117Z,100565.91
2023-01-08T06:06:03.583Z,100570.59
2023-01-08T06:07:06.153Z,100565.09
2023-01-08T06:08:08.942Z,100557.03
2023-01-08T06:09:13.331Z,100554.44
2023-01-08T06:10:16.279Z,100544.97
2023-01-08T06:11:18.814Z,100545.81
2023-01-08T06:12:21.578Z,100540.69
2023-01-08T06:13:24.088Z,100543.91
2023-01-08T06:14:26.914Z,100547.00
2023-01-08T06:15:32.977Z,100543.13
2023-01-08T06:16:36.019Z,100555.97
2023-01-08T06:17:38.862Z,100551.91
2023-01-08T06:18:41.382Z,100548.25
2023-01-08T06:19:46.722Z,100549.28
2023-01-08T06:20:49.305Z,100548.53
2023-01-08T06:21:51.754Z,100551.91
2023-01-08T06:22:54.767Z,100559.72
2023-01-08T06:23:57.353Z,100569.66
2023-01-08T06:24:59.981Z,100578.09
2023-01-08T06:26:04.398Z,100582.44
2023-01-08T06:27:07.212Z,100592.63
2023-01-08T06:28:10.041Z,100597.56
2023-01-08T06:29:12.533Z,100598.78
2023-01-08T06:30:15.155Z,100598.53
2023-01-08T06:31:17.605Z,100598.31
2023-01-08T06:32:20.214Z,100597.31
2023-01-08T06:33:22.612Z,100600.94
2023-01-08T06:34:25.317Z,100597.50
2023-01-08T06:35:28.704Z,100602.16
2023-01-08T06:36:31.581Z,100601.22
2023-01-08T06:37:34.289Z,100599.00
2023-01-08T06:38:37.506Z,100598.44
2023-01-08T06:39:40.059Z,100599.50
2023-01-08T06:40:42.713Z,100606.50
2023-01-08T06:41:45.341Z,100603.13
2023-01-08T06:42:48.038Z,100598.59
2023-01-08T06:43:50.661Z,100596.59
2023-01-08T06:44:53.693Z,100601.22
2023-01-08T06:45:58.730Z,100600.63
2023-01-08T06:47:01.311Z,100606.44
2023-01-08T06:48:07.863Z,100595.50
2023-01-08T06:49:10.951Z,100601.78
2023-01-08T06:50:13.711Z,100602.53
2023-01-08T06:51:16.566Z,100605.47
2023-01-08T06:52:19.297Z,100605.47
2023-01-08T06:53:22.078Z,100610.44
2023-01-08T06:54:30.241Z,100611.50
2023-01-08T06:55:33.373Z,100611.97
2023-01-08T06:56:52.356Z,100615.66
2023-01-08T06:57:58.837Z,100607.81
2023-01-08T06:59:01.547Z,100603.81
2023-01-08T07:00:04.735Z,100608.22
2023-01-08T07:01:07.524Z,100611.44
2023-01-08T07:02:18.489Z,100604.16
2023-01-08T07:03:21.285Z,100607.22
2023-01-08T07:04:24.068Z,100607.63
2023-01-08T07:05:29.653Z,100604.16
2023-01-08T07:06:32.478Z,100603.25
2023-01-08T07:07:35.073Z,100607.28
2023-01-08T07:08:37.780Z,100607.94
2023-01-08T07:09:43.262Z,100611.03
2023-01-08T07:10:46.489Z,100612.06
2023-01-08T07:11:49.505Z,100606.75
2023-01-08T07:12:52.226Z,100604.22
2023-01-08T07:13:56.840Z,100599.78
2023-01-08T07:14:59.587Z,100615.59
2023-01-08T07:16:12.786Z,100608.72
2023-01-08T07:17:16.460Z,100608.06
2023-01-08T07:18:18.962Z,100605.47
2023-01-08T07:19:21.433Z,100603.66
2023-01-08T07:20:29.713Z,100606.00
2023-01-08T07:21:32.350Z,100606.13
2023-01-08T07:22:34.988Z,100597.09
2023-01-08T07:23:38.493Z,100608.34
2023-01-08T07:24:43.128Z,100606.22
2023-01-08T07:26:10.238Z,100604.28
2023-01-08T07:29:59.508Z,100600.34
2023-01-08T07:31:06.399Z,100592.59
2023-01-08T07:32:12.155Z,100593.94
2023-01-08T07:33:14.642Z,100591.78
2023-01-08T07:34:17.678Z,100583.94
2023-01-08T07:35:23.304Z,100578.69
2023-01-08T07:36:26.370Z,100582.06
2023-01-08T07:37:29.162Z,100593.28
2023-01-08T07:38:31.868Z,100590.00
2023-01-08T07:39:34.678Z,100593.88
2023-01-08T07:40:39.376Z,100587.84
2023-01-08T07:41:42.331Z,100588.84
2023-01-08T07:42:44.984Z,100596.97
2023-01-08T07:43:49.087Z,100599.97
2023-01-08T07:44:51.824Z,100595.13
2023-01-08T07:46:02.968Z,100580.94
2023-01-08T07:47:06.617Z,100583.91
2023-01-08T07:48:16.085Z,100580.16
2023-01-08T07:49:21.246Z,100573.56
2023-01-08T07:50:23.875Z,100580.72
2023-01-08T07:51:28.376Z,100585.94
2023-01-08T07:52:31.074Z,100577.94
2023-01-08T07:53:34.848Z,100582.31
2023-01-08T07:54:40.651Z,100582.34
2023-01-08T07:55:46.453Z,100580.16
2023-01-08T07:56:49.428Z,100572.16
2023-01-08T07:57:53.268Z,100576.59
2023-01-08T07:58:58.481Z,100577.34
2023-01-08T08:00:04.301Z,100594.50
2023-01-08T08:01:12.609Z,100599.94
2023-01-08T08:02:15.934Z,100602.50
2023-01-08T08:03:18.884Z,100602.78
2023-01-08T08:04:24.671Z,100609.44
2023-01-08T08:05:27.179Z,100603.38
2023-01-08T08:07:46.661Z,100586.88
2023-01-08T08:09:03.979Z,100597.44
2023-01-08T08:10:12.557Z,100603.13
2023-01-08T08:11:21.175Z,100610.44
2023-01-08T08:12:23.733Z,100608.59
2023-01-08T08:13:27.097Z,100601.50
2023-01-08T08:14:29.828Z,100595.53
2023-01-08T08:15:33.439Z,100602.53
2023-01-08T08:16:36.103Z,100602.84
2023-01-08T08:17:38.677Z,100601.91
2023-01-08T08:18:41.733Z,100612.28
2023-01-08T08:19:46.537Z,100603.34
2023-01-08T08:20:52.231Z,100601.41
2023-01-08T08:21:55.321Z,100611.16
2023-01-08T08:23:06.453Z,100614.00
2023-01-08T08:24:13.196Z,100616.03
2023-01-08T08:25:25.550Z,100597.31
2023-01-08T08:26:31.040Z,100595.22
2023-01-08T08:27:34.200Z,100606.91
2023-01-08T08:28:39.653Z,100617.22
2023-01-08T08:29:45.311Z,100638.09
2023-01-08T08:30:48.255Z,100629.47
2023-01-08T08:31:58.088Z,100616.66
2023-01-08T08:33:09.084Z,100628.06
2023-01-08T08:34:12.394Z,100624.22
2023-01-08T08:35:15.737Z,100603.81
2023-01-08T08:36:18.350Z,100603.78
2023-01-08T08:37:21.956Z,100617.47
2023-01-08T08:38:26.879Z,100615.00
2023-01-08T08:39:32.345Z,100609.28
2023-01-08T08:40:43.088Z,100607.81
2023-01-08T08:42:26.482Z,100616.44
2023-01-08T08:43:29.801Z,100596.78
2023-01-08T08:44:38.506Z,100585.00
2023-01-08T08:45:44.091Z,100604.84
2023-01-08T08:46:58.201Z,100613.41
2023-01-08T08:48:10.737Z,100620.25
2023-01-08T08:49:16.225Z,100631.41
2023-01-08T08:50:22.277Z,100636.31
2023-01-08T08:51:37.902Z,100621.06
2023-01-08T08:52:46.627Z,100617.34
2023-01-08T08:53:52.146Z,100620.56
2023-01-08T08:54:57.734Z,100630.00
2023-01-08T08:56:03.759Z,100629.75
2023-01-08T08:57:13.605Z,100626.13
2023-01-08T08:58:16.239Z,100618.72
2023-01-08T08:59:25.974Z,100621.09
2023-01-08T09:00:32.865Z,100614.50
2023-01-08T09:01:35.707Z,100614.47
2023-01-08T09:02:49.408Z,100624.25
2023-01-08T09:03:55.202Z,100622.44
2023-01-08T09:05:04.119Z,100620.00
2023-01-08T09:06:16.377Z,100616.75
2023-01-08T09:07:22.024Z,100624.25
2023-01-08T09:08:25.247Z,100619.59
2023-01-08T09:09:30.772Z,100615.44
2023-01-08T09:10:36.659Z,100618.56
2023-01-08T09:11:45.050Z,100611.72
2023-01-08T09:12:57.153Z,100617.84
2023-01-08T09:14:04.725Z,100600.66
2023-01-08T09:15:11.364Z,100623.22
2023-01-08T09:16:22.050Z,100608.19
2023-01-08T09:17:28.488Z,100608.88
2023-01-08T09:18:36.938Z,100602.81
2023-01-08T09:19:47.456Z,100602.47
2023-01-08T09:20:50.218Z,100612.44
2023-01-08T09:22:03.435Z,100621.56
2023-01-08T09:23:07.370Z,100605.88
2023-01-08T09:24:13.375Z,100596.72
2023-01-08T09:25:29.534Z,100589.19
2023-01-08T09:26:32.190Z,100600.25
2023-01-08T09:27:40.063Z,100602.81
2023-01-08T09:28:50.078Z,100599.88
2023-01-08T09:29:54.966Z,100590.97
2023-01-08T09:31:03.863Z,100594.66
2023-01-08T09:32:12.720Z,100596.47
2023-01-08T09:33:15.269Z,100593.81
2023-01-08T09:34:17.905Z,100594.75
2023-01-08T09:35:20.707Z,100590.25
2023-01-08T09:36:34.837Z,100582.44
2023-01-08T09:37:37.777Z,100589.00
2023-01-08T09:38:45.664Z,100580.84
2023-01-08T09:40:01.546Z,100587.34
2023-01-08T09:41:15.100Z,100584.97
2023-01-08T09:42:26.278Z,100588.88
2023-01-08T09:44:35.190Z,100579.19
2023-01-08T09:45:01.403Z,100581.31
2023-01-08T09:46:16.080Z,100575.81
2023-01-08T09:47:42.738Z,100566.16
2023-01-08T09:49:07.458Z,100563.97
2023-01-08T09:50:14.267Z,100563.78
2023-01-08T09:51:20.152Z,100572.31
2023-01-08T09:52:23.013Z,100553.63
2023-01-08T09:53:26.156Z,100561.59
2023-01-08T09:54:31.464Z,100561.84
2023-01-08T09:55:36.160Z,100561.00
2023-01-08T09:56:39.622Z,100563.00
2023-01-08T09:57:46.300Z,100562.06
2023-01-08T09:59:05.133Z,100560.16
2023-01-08T10:00:30.499Z,100549.81
2023-01-08T10:01:37.545Z,100546.81
2023-01-08T10:02:42.576Z,100541.66
2023-01-08T10:03:55.023Z,100546.59
2023-01-08T10:04:59.461Z,100548.50
2023-01-08T10:06:11.764Z,100546.94
2023-01-08T10:07:21.719Z,100552.63
2023-01-08T10:08:38.960Z,100550.75
2023-01-08T10:09:42.292Z,100537.47
2023-01-08T10:10:46.155Z,100540.16
2023-01-08T10:13:24.795Z,100538.19
2023-01-08T10:14:48.892Z,100537.47
2023-01-08T10:15:55.489Z,100535.28
2023-01-08T10:17:01.807Z,100533.53
2023-01-08T10:18:10.321Z,100524.22
2023-01-08T10:19:15.309Z,100529.78
2023-01-08T10:20:20.951Z,100524.16
2023-01-08T10:21:33.344Z,100534.72
2023-01-08T10:22:37.060Z,100528.69
2023-01-08T10:23:52.980Z,100527.19
2023-01-08T10:25:06.625Z,100514.38
2023-01-08T10:26:09.195Z,100517.16
2023-01-08T10:27:18.470Z,100517.69
2023-01-08T10:28:28.855Z,100513.81
2023-01-08T10:29:31.387Z,100523.19
2023-01-08T10:30:40.528Z,100513.53
2023-01-08T10:31:58.839Z,100514.47
2023-01-08T10:33:26.989Z,100504.56
2023-01-08T10:34:53.381Z,100506.13
2023-01-08T10:36:10.231Z,100507.47
2023-01-08T10:37:47.144Z,100502.97
2023-01-08T10:39:03.654Z,100506.41
2023-01-08T10:40:31.132Z,100500.75
2023-01-08T10:41:42.899Z,100496.59
2023-01-08T10:42:47.068Z,100499.22
2023-01-08T10:44:11.459Z,100500.84
2023-01-08T10:45:31.408Z,100497.56
2023-01-08T10:46:45.825Z,100500.56
2023-01-08T10:47:56.858Z,100498.06
2023-01-08T10:49:04.070Z,100503.88
2023-01-08T10:50:28.663Z,100497.13
2023-01-08T10:51:36.049Z,100493.06
2023-01-08T10:52:41.661Z,100492.19
2023-01-08T10:53:47.755Z,100498.22
2023-01-08T10:54:58.623Z,100492.19
2023-01-08T10:56:06.557Z,100491.47
2023-01-08T10:57:30.194Z,100484.16
2023-01-08T10:58:43.511Z,100477.03
2023-01-08T11:01:34.819Z,100480.31
2023-01-08T11:02:43.775Z,100488.66
2023-01-08T11:03:54.796Z,100488.38
2023-01-08T11:05:07.842Z,100479.19
2023-01-08T11:06:16.680Z,100479.47
2023-01-08T11:09:38.902Z,100486.00
2023-01-08T11:10:42.832Z,100477.97
2023-01-08T11:11:49.975Z,100481.00
2023-01-08T11:13:03.218Z,100480.22
2023-01-08T11:14:23.397Z,100478.88
2023-01-08T11:15:35.053Z,100469.22
2023-01-08T11:16:48.485Z,100463.91
2023-01-08T11:18:01.232Z,100465.06
2023-01-08T11:19:24.278Z,100463.50
2023-01-08T11:20:36.462Z,100466.13
2023-01-08T11:21:41.919Z,100466.84
2023-01-08T11:22:47.843Z,100474.56
2023-01-08T11:24:21.759Z,100468.56
2023-01-08T11:25:44.355Z,100463.72
2023-01-08T11:27:28.321Z,100460.75
2023-01-08T11:29:01.151Z,100462.09
2023-01-08T11:32:17.113Z,100457.72
2023-01-08T11:34:08.517Z,100447.00
2023-01-08T11:35:32.613Z,100456.91
2023-01-08T11:36:55.526Z,100452.22
2023-01-08T11:39:01.205Z,100459.78
2023-01-08T11:40:19.200Z,100451.59
2023-01-08T11:41:42.757Z,100455.31
2023-01-08T11:43:24.406Z,100447.09
2023-01-08T11:45:00.004Z,100450.59
2023-01-08T11:46:29.481Z,100449.44
2023-01-08T11:47:52.524Z,100459.16
2023-01-08T11:49:15.479Z,100459.78
2023-01-08T11:50:43.763Z,100455.53
2023-01-08T11:52:14.981Z,100451.94
2023-01-08T11:53:54.636Z,100438.13
2023-01-08T11:55:34.240Z,100446.53
2023-01-08T11:57:05.564Z,100439.66
2023-01-08T11:58:25.372Z,100441.69
2023-01-08T12:00:14.278Z,100432.28
2023-01-08T12:01:50.039Z,100432.78
2023-01-08T12:03:50.388Z,100419.19
2023-01-08T12:05:05.088Z,100420.16
2023-01-08T12:06:46.481Z,100426.78
2023-01-08T12:07:51.354Z,100418.44
2023-01-08T12:09:44.130Z,100424.63
2023-01-08T12:11:34.319Z,100422.00
2023-01-08T12:13:04.377Z,100416.50
2023-01-08T12:14:32.910Z,100423.47
2023-01-08T12:16:12.258Z,100418.31
2023-01-08T12:17:28.544Z,100421.53
2023-01-08T12:19:12.937Z,100417.38
2023-01-08T12:21:02.212Z,100405.13
2023-01-08T12:23:02.373Z,100413.38
2023-01-08T12:24:50.489Z,100413.50
2023-01-08T12:26:24.794Z,100406.22
2023-01-08T12:28:07.143Z,100410.41
2023-01-08T12:30:04.931Z,100411.47
2023-01-08T12:32:01.870Z,100408.84
2023-01-08T12:33:35.165Z,100406.44
2023-01-08T12:35:10.257Z,100407.22
2023-01-08T12:36:34.525Z,100399.16
2023-01-08T12:38:09.981Z,100404.41
2023-01-08T12:39:35.689Z,100400.78
2023-01-08T12:41:16.641Z,100400.41
2023-01-08T12:42:35.660Z,100397.03
2023-01-08T12:43:57.828Z,100391.50
2023-01-08T12:45:14.867Z,100389.66
2023-01-08T12:46:19.491Z,100397.78
2023-01-08T12:47:58.467Z,100387.03
2023-01-08T12:49:23.471Z,100386.06
2023-01-08T12:51:18.643Z,100386.63
2023-01-08T12:52:51.400Z,100383.34
2023-01-08T12:54:17.274Z,100384.50
2023-01-08T12:55:57.616Z,100385.25
2023-01-08T12:57:18.340Z,100388.84
2023-01-08T12:59:05.608Z,100386.25
2023-01-08T13:00:41.062Z,100399.53
2023-01-08T13:02:07.559Z,100392.25
2023-01-08T13:03:29.937Z,100386.72
2023-01-08T13:05:31.061Z,100384.97
2023-01-08T13:06:41.457Z,100388.56
2023-01-08T13:07:51.524Z,100379.06
2023-01-08T13:08:56.613Z,100378.28
2023-01-08T13:10:09.841Z,100380.22
2023-01-08T13:11:20.696Z,100373.44
2023-01-08T13:12:33.637Z,100372.16
2023-01-08T13:13:45.392Z,100382.13
2023-01-08T13:14:54.592Z,100379.75
2023-01-08T13:16:15.415Z,100388.06
2023-01-08T13:17:53.576Z,100391.94
2023-01-08T13:19:01.196Z,100379.66